Time;durP1;ratioP1;P1;durP2;ratioP2;P2;SDS_P1;SDS_P2;PMS_P1;PMS_P2;Temp;Humidity;BMP_temperature;BMP_pressure;BME280_temperature;BME280_humidity;BME280_pressure;Samples;Min_cycle;Max_cycle;Signal;HPM_P1;HPM_P2
2020/12/15 00:01:46;;;;;;;;;;;10.70;81.00;;;;;;5112560;28;19908;-84
2020/12/15 00:04:11;;;;;;;;;;;10.70;81.00;;;;;;5095751;28;19916;-84
2020/12/15 00:06:36;;;;;;;;;;;10.70;81.00;;;;;;5095318;28;19973;-84
2020/12/15 00:09:02;;;;;;;;;;;10.70;81.00;;;;;;5111669;28;20010;-84
2020/12/15 00:11:28;;;;;;;;;;;10.70;81.00;;;;;;5095811;28;19916;-84
2020/12/15 00:13:53;;;;;;;;;;;10.70;81.00;;;;;;5112341;28;19937;-84
2020/12/15 00:16:19;;;;;;;;;;;10.70;81.00;;;;;;5095977;28;19912;-84
2020/12/15 00:18:44;;;;;;;;;;;10.70;81.00;;;;;;5112472;28;19919;-84
2020/12/15 00:21:10;;;;;;;;;;;10.70;81.00;;;;;;5112329;28;20432;-84
2020/12/15 00:23:35;;;;;;;;;;;10.70;81.00;;;;;;5095389;28;19958;-84
2020/12/15 00:26:01;;;;;;;;;;;10.70;81.00;;;;;;5090711;23;20403;-90
2020/12/15 00:28:26;;;;;;;;;;;10.70;81.10;;;;;;5095700;28;19926;-89
2020/12/15 00:30:52;;;;;;;;;;;10.70;81.10;;;;;;5078494;28;19972;-90
2020/12/15 00:33:17;;;;;;;;;;;10.60;81.10;;;;;;5078506;28;19924;-90
2020/12/15 00:35:43;;;;;;;;;;;10.60;81.10;;;;;;5074252;28;19912;-89
2020/12/15 00:38:08;;;;;;;;;;;10.70;81.10;;;;;;5093025;28;19923;-90
2020/12/15 00:40:34;;;;;;;;;;;10.70;81.10;;;;;;5090438;28;19908;-89
2020/12/15 00:42:59;;;;;;;;;;;10.70;81.10;;;;;;5057857;28;20399;-90
2020/12/15 00:45:25;;;;;;;;;;;10.60;81.10;;;;;;5074995;28;20008;-89
2020/12/15 00:47:50;;;;;;;;;;;10.60;81.10;;;;;;5057880;28;19913;-88
2020/12/15 00:50:16;;;;;;;;;;;10.60;81.10;;;;;;5058236;28;19916;-90
2020/12/15 00:52:41;;;;;;;;;;;10.60;81.10;;;;;;5074424;28;19934;-89
2020/12/15 00:55:07;;;;;;;;;;;10.60;81.10;;;;;;5058118;28;19938;-90
2020/12/15 00:57:32;;;;;;;;;;;10.60;81.10;;;;;;5074752;28;20496;-89
2020/12/15 00:59:58;;;;;;;;;;;10.60;81.10;;;;;;5057499;28;19970;-89
2020/12/15 01:02:24;;;;;;;;;;;10.60;81.10;;;;;;5074642;28;19920;-90
2020/12/15 01:04:49;;;;;;;;;;;10.60;81.10;;;;;;5057446;28;19920;-89
2020/12/15 01:07:15;;;;;;;;;;;10.60;81.10;;;;;;5057707;28;19927;-90
2020/12/15 01:09:40;;;;;;;;;;;10.60;81.10;;;;;;5074046;28;19926;-89
2020/12/15 01:12:12;;;;;;;;;;;10.60;81.10;;;;;;5057697;28;19919;-89
2020/12/15 01:14:38;;;;;;;;;;;10.60;81.10;;;;;;5074567;28;19930;-89
2020/12/15 01:17:07;;;;;;;;;;;10.60;81.20;;;;;;5073752;28;19975;-90
2020/12/15 01:19:33;;;;;;;;;;;10.50;81.10;;;;;;5073927;28;19994;-90
2020/12/15 01:21:58;;;;;;;;;;;10.60;81.30;;;;;;5057140;28;20022;-89
2020/12/15 01:24:25;;;;;;;;;;;10.50;81.20;;;;;;5057283;28;20269;-89
2020/12/15 01:26:51;;;;;;;;;;;10.50;81.20;;;;;;5073522;28;20015;-90
2020/12/15 01:29:17;;;;;;;;;;;10.50;81.20;;;;;;5057608;28;20408;-90
2020/12/15 01:31:42;;;;;;;;;;;10.50;81.20;;;;;;5074054;28;19915;-89
2020/12/15 01:34:08;;;;;;;;;;;10.50;81.30;;;;;;5107962;28;20356;-89
2020/12/15 01:36:33;;;;;;;;;;;10.50;81.20;;;;;;5077898;28;19912;-89
2020/12/15 01:38:59;;;;;;;;;;;10.50;81.30;;;;;;5057034;28;19920;-90
2020/12/15 01:41:25;;;;;;;;;;;10.50;81.40;;;;;;5057203;28;19916;-89
2020/12/15 01:43:51;;;;;;;;;;;10.50;81.40;;;;;;5056877;28;19923;-89
2020/12/15 01:46:16;;;;;;;;;;;10.50;81.50;;;;;;5057037;28;19920;-90
2020/12/15 01:48:42;;;;;;;;;;;10.50;81.50;;;;;;5056902;28;20011;-90
2020/12/15 01:51:08;;;;;;;;;;;10.50;81.50;;;;;;5073814;28;19948;-89
2020/12/15 01:53:34;;;;;;;;;;;10.50;81.60;;;;;;5073701;28;20380;-89
2020/12/15 01:56:00;;;;;;;;;;;10.40;81.70;;;;;;5056920;28;20369;-89
2020/12/15 01:58:25;;;;;;;;;;;10.40;81.70;;;;;;5057093;28;19916;-89
2020/12/15 02:00:51;;;;;;;;;;;10.50;81.70;;;;;;5073437;28;19912;-88
2020/12/15 02:03:16;;;;;;;;;;;10.50;81.70;;;;;;5073725;28;20071;-89
2020/12/15 02:05:42;;;;;;;;;;;10.50;81.70;;;;;;5073703;28;19920;-90
2020/12/15 02:08:07;;;;;;;;;;;10.40;81.70;;;;;;5057051;28;20315;-89
2020/12/15 02:10:33;;;;;;;;;;;10.40;81.70;;;;;;5057217;28;19965;-89
2020/12/15 02:12:59;;;;;;;;;;;10.40;81.80;;;;;;5074326;28;19966;-89
2020/12/15 02:15:24;;;;;;;;;;;10.40;81.80;;;;;;5056891;28;19923;-89
2020/12/15 02:17:50;;;;;;;;;;;10.40;81.80;;;;;;5073229;28;19908;-89
2020/12/15 02:20:15;;;;;;;;;;;10.40;81.80;;;;;;5073376;28;20011;-90
2020/12/15 02:22:41;;;;;;;;;;;10.40;81.80;;;;;;5073603;28;19983;-89
2020/12/15 02:25:06;;;;;;;;;;;10.40;81.80;;;;;;5056522;28;19920;-90
2020/12/15 02:27:33;;;;;;;;;;;10.40;81.90;;;;;;5073710;28;19912;-89
2020/12/15 02:29:58;;;;;;;;;;;10.40;81.80;;;;;;5056800;28;19961;-89
2020/12/15 02:32:24;;;;;;;;;;;10.40;81.80;;;;;;5060242;28;19928;-90
2020/12/15 02:34:53;;;;;;;;;;;10.40;81.80;;;;;;5060458;28;19923;-89
2020/12/15 02:37:19;;;;;;;;;;;10.50;81.90;;;;;;5077535;28;20011;-89
2020/12/15 02:39:44;;;;;;;;;;;10.50;81.90;;;;;;5083667;28;19951;-88
2020/12/15 02:42:10;;;;;;;;;;;10.40;81.80;;;;;;5094455;28;19912;-89
2020/12/15 02:44:35;;;;;;;;;;;10.40;81.80;;;;;;5077399;28;19920;-89
2020/12/15 02:47:01;;;;;;;;;;;10.40;81.80;;;;;;5076853;28;20380;-89
2020/12/15 02:49:26;;;;;;;;;;;10.40;81.80;;;;;;5094527;28;19965;-90
2020/12/15 02:51:52;;;;;;;;;;;10.50;81.80;;;;;;5076844;28;19934;-89
2020/12/15 02:54:18;;;;;;;;;;;10.40;81.80;;;;;;5077002;28;19928;-89
2020/12/15 02:56:43;;;;;;;;;;;10.40;81.80;;;;;;5093805;28;19918;-90
2020/12/15 02:59:09;;;;;;;;;;;10.50;81.90;;;;;;5093218;28;19954;-89
2020/12/15 03:01:39;;;;;;;;;;;10.50;81.90;;;;;;5093899;28;20424;-89
2020/12/15 03:04:04;;;;;;;;;;;10.50;81.80;;;;;;5094670;28;19908;-89
2020/12/15 03:06:30;;;;;;;;;;;10.40;81.70;;;;;;5094940;28;19912;-89
2020/12/15 03:08:55;;;;;;;;;;;10.40;81.70;;;;;;5060146;28;19912;-89
2020/12/15 03:11:22;;;;;;;;;;;10.50;81.70;;;;;;5077130;28;20388;-89
2020/12/15 03:13:47;;;;;;;;;;;10.40;81.70;;;;;;5060078;28;19912;-88
2020/12/15 03:16:13;;;;;;;;;;;10.40;81.70;;;;;;5060211;28;19924;-88
2020/12/15 03:18:38;;;;;;;;;;;10.40;81.70;;;;;;5062229;28;19967;-88
2020/12/15 03:21:05;;;;;;;;;;;10.50;81.70;;;;;;5093891;28;19912;-89
2020/12/15 03:23:30;;;;;;;;;;;10.50;81.70;;;;;;5093403;28;19915;-90
2020/12/15 03:25:56;;;;;;;;;;;10.40;81.70;;;;;;5076210;28;19924;-88
2020/12/15 03:28:21;;;;;;;;;;;10.50;81.70;;;;;;5073266;28;19923;-88
2020/12/15 03:30:47;;;;;;;;;;;10.40;81.70;;;;;;5059319;28;19965;-88
2020/12/15 03:33:13;;;;;;;;;;;10.40;81.70;;;;;;5076370;28;19956;-88
2020/12/15 03:35:38;;;;;;;;;;;10.40;81.70;;;;;;5066746;28;19963;-89
2020/12/15 03:38:04;;;;;;;;;;;10.40;81.70;;;;;;5096236;28;19912;-89
2020/12/15 03:40:29;;;;;;;;;;;10.50;81.70;;;;;;5096376;28;19961;-88
2020/12/15 03:42:55;;;;;;;;;;;10.40;81.70;;;;;;5079232;28;19916;-88
2020/12/15 03:45:20;;;;;;;;;;;10.40;81.70;;;;;;5096468;28;19911;-89
2020/12/15 03:47:46;;;;;;;;;;;10.40;81.70;;;;;;5079232;28;19923;-88
2020/12/15 03:50:11;;;;;;;;;;;10.40;81.70;;;;;;5079045;28;19916;-88
2020/12/15 03:52:37;;;;;;;;;;;10.40;81.70;;;;;;5079258;28;20246;-88
2020/12/15 03:55:05;;;;;;;;;;;10.40;81.70;;;;;;5092171;28;19967;-88
2020/12/15 03:57:31;;;;;;;;;;;10.40;81.60;;;;;;5092689;28;19935;-88
2020/12/15 03:59:57;;;;;;;;;;;10.40;81.60;;;;;;5075360;28;19916;-88
2020/12/15 04:02:22;;;;;;;;;;;10.40;81.60;;;;;;5059094;28;19913;-88
2020/12/15 04:04:48;;;;;;;;;;;10.40;81.70;;;;;;5058774;28;19916;-88
2020/12/15 04:07:13;;;;;;;;;;;10.40;81.70;;;;;;5059723;28;19927;-89
2020/12/15 04:09:39;;;;;;;;;;;10.40;81.70;;;;;;5071807;28;19916;-89
2020/12/15 04:12:05;;;;;;;;;;;10.40;81.70;;;;;;5075401;28;20364;-87
2020/12/15 04:14:31;;;;;;;;;;;10.40;81.70;;;;;;5075376;28;19986;-88
2020/12/15 04:16:56;;;;;;;;;;;10.40;81.70;;;;;;5075291;28;20353;-88
2020/12/15 04:19:22;;;;;;;;;;;10.40;81.70;;;;;;5092606;28;19939;-88
2020/12/15 04:21:47;;;;;;;;;;;10.40;81.70;;;;;;5075567;28;20120;-88
2020/12/15 04:24:13;;;;;;;;;;;10.40;81.70;;;;;;5091695;28;20249;-88
2020/12/15 04:26:38;;;;;;;;;;;10.40;81.70;;;;;;5091930;28;19932;-87
2020/12/15 04:29:04;;;;;;;;;;;10.40;81.70;;;;;;5074766;28;19916;-87
2020/12/15 04:31:30;;;;;;;;;;;10.40;81.70;;;;;;5075198;28;19912;-88
2020/12/15 04:33:55;;;;;;;;;;;10.30;81.70;;;;;;5081854;28;19935;-88
2020/12/15 04:36:21;;;;;;;;;;;10.40;81.70;;;;;;5074902;28;20314;-88
2020/12/15 04:38:47;;;;;;;;;;;10.30;81.70;;;;;;5063676;28;19990;-87
2020/12/15 04:41:12;;;;;;;;;;;10.30;81.60;;;;;;5091457;28;20454;-87
2020/12/15 04:43:39;;;;;;;;;;;10.40;81.70;;;;;;5091538;28;19916;-88
2020/12/15 04:46:04;;;;;;;;;;;10.30;81.70;;;;;;5091824;28;19912;-89
2020/12/15 04:48:31;;;;;;;;;;;10.40;81.70;;;;;;5080913;28;19986;-89
2020/12/15 04:50:58;;;;;;;;;;;10.30;81.70;;;;;;5074243;28;20419;-89
2020/12/15 04:53:26;;;;;;;;;;;10.40;81.80;;;;;;5102820;28;19912;-90
2020/12/15 04:55:54;;;;;;;;;;;10.40;81.80;;;;;;5093852;28;19965;-90
2020/12/15 04:58:20;;;;;;;;;;;10.30;81.70;;;;;;5094057;28;19912;-90
2020/12/15 05:00:46;;;;;;;;;;;10.30;81.80;;;;;;5094487;28;19923;-90
2020/12/15 05:03:19;;;;;;;;;;;10.30;81.80;;;;;;5093999;28;20012;-90
2020/12/15 05:05:45;;;;;;;;;;;10.30;81.80;;;;;;5095336;28;20429;-89
2020/12/15 05:08:11;;;;;;;;;;;10.30;81.80;;;;;;5095026;28;19912;-89
2020/12/15 05:10:37;;;;;;;;;;;10.30;81.80;;;;;;5095186;28;19908;-90
2020/12/15 05:13:03;;;;;;;;;;;10.40;81.80;;;;;;5061644;28;20452;-90
2020/12/15 05:15:32;;;;;;;;;;;10.40;81.80;;;;;;5078373;28;19965;-89
2020/12/15 05:18:01;;;;;;;;;;;10.40;81.80;;;;;;5112932;28;20356;-90
2020/12/15 05:20:28;;;;;;;;;;;10.40;81.80;;;;;;5093416;28;19918;-90
2020/12/15 05:22:53;;;;;;;;;;;10.40;81.80;;;;;;5074476;28;19908;-90
2020/12/15 05:25:27;;;;;;;;;;;10.40;81.80;;;;;;5074328;28;20392;-91
2020/12/15 05:27:53;;;;;;;;;;;10.40;81.80;;;;;;5075679;28;20370;-89
2020/12/15 05:30:19;;;;;;;;;;;10.40;81.70;;;;;;5089056;28;19920;-90
2020/12/15 05:32:48;;;;;;;;;;;10.40;81.80;;;;;;5082527;28;20441;-89
2020/12/15 05:35:14;;;;;;;;;;;10.40;81.80;;;;;;5075094;28;20029;-90
2020/12/15 05:37:44;;;;;;;;;;;10.40;81.80;;;;;;5074255;28;19908;-90
2020/12/15 05:40:10;;;;;;;;;;;10.40;81.80;;;;;;5074089;28;19908;-89
2020/12/15 05:42:36;;;;;;;;;;;10.40;81.70;;;;;;5057577;28;20008;-90
2020/12/15 05:45:03;;;;;;;;;;;10.40;81.70;;;;;;5074104;28;19908;-90
2020/12/15 05:47:30;;;;;;;;;;;10.40;81.80;;;;;;5089398;28;19920;-91
2020/12/15 05:49:57;;;;;;;;;;;10.40;81.80;;;;;;5090649;28;20386;-90
2020/12/15 05:52:29;;;;;;;;;;;10.40;81.80;;;;;;5090340;28;19994;-90
2020/12/15 05:55:04;;;;;;;;;;;10.40;81.80;;;;;;5090548;28;19920;-90
2020/12/15 05:57:30;;;;;;;;;;;10.40;81.70;;;;;;5090745;28;19995;-90
2020/12/15 06:00:05;;;;;;;;;;;10.40;81.70;;;;;;5079710;28;19959;-90
2020/12/15 06:02:31;;;;;;;;;;;10.40;81.70;;;;;;5080571;28;19916;-90
2020/12/15 06:04:59;;;;;;;;;;;10.50;81.80;;;;;;5056763;28;19961;-90
2020/12/15 06:07:26;;;;;;;;;;;10.40;82.50;;;;;;5096007;28;20372;-90
2020/12/15 06:09:52;;;;;;;;;;;10.40;81.80;;;;;;5087976;28;19915;-90
2020/12/15 06:12:18;;;;;;;;;;;10.40;81.80;;;;;;5073825;28;19916;-90
2020/12/15 06:14:43;;;;;;;;;;;10.40;81.80;;;;;;5061866;28;19927;-86
2020/12/15 06:17:09;;;;;;;;;;;10.40;81.80;;;;;;5078208;28;20006;-86
2020/12/15 06:19:34;;;;;;;;;;;10.50;81.90;;;;;;5083104;28;19912;-86
2020/12/15 06:22:01;;;;;;;;;;;10.50;81.90;;;;;;5084037;28;19916;-84
2020/12/15 06:24:38;;;;;;;;;;;10.50;81.90;;;;;;5104189;22;19917;-84
2020/12/15 06:27:04;;;;;;;;;;;10.40;81.90;;;;;;5074340;28;19986;-84
2020/12/15 06:29:34;;;;;;;;;;;10.40;81.90;;;;;;5073652;28;20312;-84
2020/12/15 06:32:00;;;;;;;;;;;10.50;82.00;;;;;;5068194;28;20370;-84
2020/12/15 06:34:29;;;;;;;;;;;10.40;81.90;;;;;;5058392;28;19912;-83
2020/12/15 06:36:56;;;;;;;;;;;10.50;81.90;;;;;;5073708;28;20382;-84
2020/12/15 06:39:26;;;;;;;;;;;10.50;82.00;;;;;;5072161;28;19912;-84
2020/12/15 06:42:02;;;;;;;;;;;10.50;82.00;;;;;;5054213;28;19909;-84
2020/12/15 06:44:30;;;;;;;;;;;10.50;82.00;;;;;;5059514;28;19912;-84
2020/12/15 06:46:56;;;;;;;;;;;10.50;82.10;;;;;;5075037;28;19916;-84
2020/12/15 06:49:47;;;;;;;;;;;10.50;82.10;;;;;;5090579;28;19955;-84
2020/12/15 06:52:13;;;;;;;;;;;10.50;82.20;;;;;;5069498;28;19920;-84
2020/12/15 06:54:38;;;;;;;;;;;10.50;82.20;;;;;;5056539;28;19927;-84
2020/12/15 06:57:08;;;;;;;;;;;10.50;82.10;;;;;;5056701;28;19916;-84
2020/12/15 06:59:38;;;;;;;;;;;10.50;82.20;;;;;;5064675;28;19960;-83
2020/12/15 07:02:06;;;;;;;;;;;10.50;82.20;;;;;;5051337;28;20015;-85
2020/12/15 07:04:32;;;;;;;;;;;10.50;82.20;;;;;;5038338;28;19912;-84
2020/12/15 07:06:59;;;;;;;;;;;10.50;82.20;;;;;;5055191;28;19923;-85
2020/12/15 07:09:24;;;;;;;;;;;10.50;82.20;;;;;;5050508;28;20267;-84
2020/12/15 07:11:50;;;;;;;;;;;10.50;82.20;;;;;;5061195;28;19920;-84
2020/12/15 07:14:20;;;;;;;;;;;10.60;82.20;;;;;;5073914;28;19928;-84
2020/12/15 07:16:46;;;;;;;;;;;10.60;82.40;;;;;;5073956;28;20255;-85
2020/12/15 07:19:12;;;;;;;;;;;10.60;82.60;;;;;;5056046;28;20050;-84
2020/12/15 07:21:37;;;;;;;;;;;10.60;82.50;;;;;;5051563;28;19928;-83
2020/12/15 07:24:03;;;;;;;;;;;10.60;82.50;;;;;;5072945;28;19921;-84
2020/12/15 07:26:28;;;;;;;;;;;10.60;82.60;;;;;;5071504;28;19925;-85
2020/12/15 07:28:54;;;;;;;;;;;10.60;82.50;;;;;;5072649;28;19959;-85
2020/12/15 07:31:29;;;;;;;;;;;10.60;82.50;;;;;;5069962;28;20378;-85
2020/12/15 07:34:07;;;;;;;;;;;10.60;82.60;;;;;;5061337;28;20008;-85
2020/12/15 07:36:35;;;;;;;;;;;10.60;82.60;;;;;;5051578;28;20040;-85
2020/12/15 07:39:01;;;;;;;;;;;10.60;82.60;;;;;;5047717;28;19916;-85
2020/12/15 07:41:26;;;;;;;;;;;10.70;82.60;;;;;;5074384;28;19920;-85
2020/12/15 07:43:53;;;;;;;;;;;10.60;82.80;;;;;;5089599;28;19917;-85
2020/12/15 07:46:19;;;;;;;;;;;10.70;82.80;;;;;;5070552;28;19963;-85
2020/12/15 07:48:46;;;;;;;;;;;10.70;82.70;;;;;;5069808;28;19917;-85
2020/12/15 07:51:11;;;;;;;;;;;10.70;82.70;;;;;;5053859;28;20263;-85
2020/12/15 07:53:37;;;;;;;;;;;10.70;82.80;;;;;;5064007;28;19963;-84
2020/12/15 07:56:05;;;;;;;;;;;10.70;82.80;;;;;;5055609;28;19920;-85
2020/12/15 07:58:31;;;;;;;;;;;10.70;82.80;;;;;;5052540;28;20007;-85
2020/12/15 08:00:57;;;;;;;;;;;10.70;82.80;;;;;;5068818;28;20006;-85
2020/12/15 08:03:22;;;;;;;;;;;10.70;82.80;;;;;;5053544;28;19909;-85
2020/12/15 08:05:48;;;;;;;;;;;10.70;82.80;;;;;;5050466;28;19924;-85
2020/12/15 08:08:13;;;;;;;;;;;10.70;82.80;;;;;;5054645;28;20003;-84
2020/12/15 08:10:39;;;;;;;;;;;10.70;82.90;;;;;;5067326;28;19959;-83
2020/12/15 08:13:05;;;;;;;;;;;10.70;82.90;;;;;;5051201;28;19917;-83
2020/12/15 08:15:38;;;;;;;;;;;10.70;82.80;;;;;;5054739;28;19920;-83
2020/12/15 08:18:06;;;;;;;;;;;10.80;82.90;;;;;;5055441;28;19916;-84
2020/12/15 08:20:33;;;;;;;;;;;10.80;82.90;;;;;;5081544;28;19909;-85
2020/12/15 08:23:06;;;;;;;;;;;10.80;82.90;;;;;;5071025;28;19923;-84
2020/12/15 08:25:32;;;;;;;;;;;10.80;82.90;;;;;;5073323;28;20328;-85
2020/12/15 08:28:07;;;;;;;;;;;10.80;82.80;;;;;;5072900;28;19958;-84
2020/12/15 08:30:33;;;;;;;;;;;10.80;82.80;;;;;;5055032;28;20119;-84
2020/12/15 08:32:58;;;;;;;;;;;10.80;83.00;;;;;;5053994;28;20338;-84
2020/12/15 08:35:25;;;;;;;;;;;10.80;83.00;;;;;;5051821;28;20324;-85
2020/12/15 08:37:55;;;;;;;;;;;10.80;83.00;;;;;;5053710;28;19913;-86
2020/12/15 08:40:21;;;;;;;;;;;10.80;83.00;;;;;;5056657;28;19920;-86
2020/12/15 08:42:46;;;;;;;;;;;10.90;83.00;;;;;;5037303;28;19921;-86
2020/12/15 08:45:13;;;;;;;;;;;10.90;83.00;;;;;;5052951;28;19920;-86
2020/12/15 08:47:42;;;;;;;;;;;10.90;83.00;;;;;;5051561;28;19917;-86
2020/12/15 08:50:12;;;;;;;;;;;10.90;83.10;;;;;;5051654;28;19917;-86
2020/12/15 08:52:37;;;;;;;;;;;10.90;83.10;;;;;;5051589;28;19920;-86
2020/12/15 08:55:03;;;;;;;;;;;10.90;83.10;;;;;;5052902;28;19921;-86
2020/12/15 08:57:28;;;;;;;;;;;10.90;83.10;;;;;;5035185;28;19913;-86
2020/12/15 08:59:54;;;;;;;;;;;10.90;83.10;;;;;;5045236;28;20449;-86
2020/12/15 09:02:20;;;;;;;;;;;10.90;83.00;;;;;;5051616;28;19924;-86
2020/12/15 09:04:46;;;;;;;;;;;10.90;83.00;;;;;;5065000;28;19916;-85
2020/12/15 09:07:14;;;;;;;;;;;11.00;83.00;;;;;;5052454;28;19908;-85
2020/12/15 09:09:40;;;;;;;;;;;10.90;83.00;;;;;;5052883;28;20315;-86
2020/12/15 09:12:05;;;;;;;;;;;11.00;83.00;;;;;;5069273;28;20035;-86
2020/12/15 09:14:31;;;;;;;;;;;11.00;83.00;;;;;;5054704;28;19916;-86
2020/12/15 09:16:58;;;;;;;;;;;11.00;83.00;;;;;;5068929;28;20350;-86
2020/12/15 09:19:25;;;;;;;;;;;11.00;83.00;;;;;;5070901;28;20323;-86
2020/12/15 09:22:00;;;;;;;;;;;11.10;83.00;;;;;;5054881;28;20007;-86
2020/12/15 09:24:27;;;;;;;;;;;11.10;83.00;;;;;;5054427;28;19917;-85
2020/12/15 09:26:53;;;;;;;;;;;11.10;83.00;;;;;;5070869;28;19917;-86
2020/12/15 09:29:18;;;;;;;;;;;11.10;83.00;;;;;;5072007;28;19916;-86
2020/12/15 09:31:50;;;;;;;;;;;11.10;83.00;;;;;;5071205;28;20358;-86
2020/12/15 09:34:15;;;;;;;;;;;11.10;83.00;;;;;;5070324;28;19959;-86
2020/12/15 09:36:41;;;;;;;;;;;11.10;83.00;;;;;;5053978;28;19960;-86
2020/12/15 09:39:06;;;;;;;;;;;11.10;83.00;;;;;;5053964;28;20384;-86
2020/12/15 09:41:35;;;;;;;;;;;11.10;83.00;;;;;;5053709;28;19916;-85
2020/12/15 09:44:01;;;;;;;;;;;11.10;83.00;;;;;;5066572;28;20016;-86
2020/12/15 09:46:27;;;;;;;;;;;11.10;83.00;;;;;;5051711;28;20003;-86
2020/12/15 09:48:52;;;;;;;;;;;11.10;83.00;;;;;;5056994;28;19919;-86
2020/12/15 09:51:18;;;;;;;;;;;11.20;83.00;;;;;;5070574;28;19970;-86
2020/12/15 09:53:44;;;;;;;;;;;11.20;83.00;;;;;;5071456;28;20290;-86
2020/12/15 09:56:14;;;;;;;;;;;11.20;83.00;;;;;;5067611;28;20361;-86
2020/12/15 09:58:39;;;;;;;;;;;11.20;82.90;;;;;;5071050;28;19930;-85
2020/12/15 10:01:05;;;;;;;;;;;11.20;82.90;;;;;;5086433;28;19973;-86
2020/12/15 10:03:30;;;;;;;;;;;11.20;83.50;;;;;;5052941;28;19924;-86
2020/12/15 10:05:56;;;;;;;;;;;11.20;82.90;;;;;;5053027;28;20009;-86
2020/12/15 10:08:22;;;;;;;;;;;11.30;82.90;;;;;;5052330;28;20085;-86
2020/12/15 10:10:47;;;;;;;;;;;11.30;82.90;;;;;;5072018;28;20270;-86
2020/12/15 10:13:13;;;;;;;;;;;11.30;82.80;;;;;;5053738;28;19918;-86
2020/12/15 10:15:38;;;;;;;;;;;11.30;82.80;;;;;;5050363;28;19913;-85
2020/12/15 10:18:09;;;;;;;;;;;11.30;82.80;;;;;;5049840;28;19913;-86
2020/12/15 10:20:35;;;;;;;;;;;11.30;82.80;;;;;;5050625;28;19924;-86
2020/12/15 10:23:00;;;;;;;;;;;11.30;82.80;;;;;;5058506;28;19913;-86
2020/12/15 10:25:26;;;;;;;;;;;11.30;82.80;;;;;;5078862;28;19955;-86
2020/12/15 10:27:51;;;;;;;;;;;11.40;82.90;;;;;;5064937;28;19923;-85
2020/12/15 10:30:17;;;;;;;;;;;11.40;82.90;;;;;;5068512;28;19921;-86
2020/12/15 10:32:42;;;;;;;;;;;11.40;83.00;;;;;;5051653;28;19909;-86
2020/12/15 10:35:08;;;;;;;;;;;11.40;82.90;;;;;;5033503;28;19964;-86
2020/12/15 10:37:33;;;;;;;;;;;11.40;82.90;;;;;;5050412;28;19920;-86
2020/12/15 10:39:59;;;;;;;;;;;11.40;82.80;;;;;;5033774;28;19967;-86
2020/12/15 10:42:26;;;;;;;;;;;11.40;82.80;;;;;;5033657;28;19913;-86
2020/12/15 10:44:51;;;;;;;;;;;11.40;82.80;;;;;;5033923;28;19959;-85
2020/12/15 10:47:17;;;;;;;;;;;11.50;83.00;;;;;;5033369;28;19944;-86
2020/12/15 10:49:42;;;;;;;;;;;11.40;82.90;;;;;;5033618;28;19913;-86
2020/12/15 10:52:08;;;;;;;;;;;11.50;82.90;;;;;;5033413;28;19966;-86
2020/12/15 10:54:33;;;;;;;;;;;11.50;82.90;;;;;;5037420;28;20349;-85
2020/12/15 10:56:59;;;;;;;;;;;11.50;82.90;;;;;;5037330;28;19917;-85
2020/12/15 10:59:25;;;;;;;;;;;11.50;82.90;;;;;;5092372;28;20400;-86
2020/12/15 11:01:50;;;;;;;;;;;11.50;82.90;;;;;;5086225;28;19916;-85
2020/12/15 11:04:17;;;;;;;;;;;11.60;82.90;;;;;;5073417;28;19908;-86
2020/12/15 11:06:42;;;;;;;;;;;11.60;82.80;;;;;;5073470;28;20391;-86
2020/12/15 11:09:10;;;;;;;;;;;11.60;82.90;;;;;;5072683;28;19955;-86
2020/12/15 11:11:36;;;;;;;;;;;11.60;82.90;;;;;;5057334;28;19920;-86
2020/12/15 11:14:02;;;;;;;;;;;11.60;82.90;;;;;;5072848;28;20330;-86
2020/12/15 11:16:28;;;;;;;;;;;11.60;82.90;;;;;;5075121;28;20282;-86
2020/12/15 11:18:53;;;;;;;;;;;11.60;82.90;;;;;;5074254;28;19917;-86
2020/12/15 11:21:19;;;;;;;;;;;11.60;82.90;;;;;;5075465;28;19970;-85
2020/12/15 11:23:44;;;;;;;;;;;11.70;82.90;;;;;;5074316;28;19912;-86
2020/12/15 11:26:13;;;;;;;;;;;11.70;82.90;;;;;;5073770;28;19924;-85
2020/12/15 11:28:38;;;;;;;;;;;11.70;82.90;;;;;;5075816;28;19920;-86
2020/12/15 11:31:04;;;;;;;;;;;11.70;82.90;;;;;;5061042;28;19918;-86
2020/12/15 11:33:30;;;;;;;;;;;11.70;82.90;;;;;;5055010;28;20287;-85
2020/12/15 11:35:56;;;;;;;;;;;11.70;82.80;;;;;;5055568;28;19920;-85
2020/12/15 11:38:21;;;;;;;;;;;11.70;82.90;;;;;;5053890;28;19913;-86
2020/12/15 11:40:47;;;;;;;;;;;11.70;82.90;;;;;;5054216;28;19932;-86
2020/12/15 11:43:12;;;;;;;;;;;11.70;82.90;;;;;;5076858;28;19909;-85
2020/12/15 11:45:38;;;;;;;;;;;11.70;82.90;;;;;;5057038;28;19916;-85
2020/12/15 11:48:04;;;;;;;;;;;11.80;82.90;;;;;;5056952;28;20370;-86
2020/12/15 11:50:30;;;;;;;;;;;11.80;82.90;;;;;;5057046;28;19913;-85
2020/12/15 11:52:56;;;;;;;;;;;11.80;82.90;;;;;;5074046;28;20362;-86
2020/12/15 11:55:22;;;;;;;;;;;11.80;82.90;;;;;;5056938;28;19963;-86
2020/12/15 11:57:49;;;;;;;;;;;11.80;82.90;;;;;;5071540;28;19913;-86
2020/12/15 12:00:15;;;;;;;;;;;11.80;82.90;;;;;;5068620;28;20303;-86
2020/12/15 12:02:41;;;;;;;;;;;11.80;82.90;;;;;;5056342;28;19924;-86
2020/12/15 12:05:06;;;;;;;;;;;11.80;82.90;;;;;;5033033;28;19924;-86
2020/12/15 12:07:32;;;;;;;;;;;11.80;82.90;;;;;;5044290;28;19913;-86
2020/12/15 12:09:57;;;;;;;;;;;11.80;82.90;;;;;;5052760;28;19916;-86
2020/12/15 12:12:23;;;;;;;;;;;11.80;82.90;;;;;;5052555;28;19921;-86
2020/12/15 12:14:48;;;;;;;;;;;11.80;82.90;;;;;;5073517;28;20366;-86
2020/12/15 12:17:14;;;;;;;;;;;11.80;82.90;;;;;;5047900;28;19920;-86
2020/12/15 12:19:39;;;;;;;;;;;11.80;82.90;;;;;;5052591;28;19943;-86
2020/12/15 12:22:05;;;;;;;;;;;11.80;82.90;;;;;;5052070;28;20377;-86
2020/12/15 12:24:30;;;;;;;;;;;11.80;82.90;;;;;;5061718;22;19919;-82
2020/12/15 12:26:57;;;;;;;;;;;11.80;82.90;;;;;;5095389;28;19923;-82
2020/12/15 12:29:23;;;;;;;;;;;11.80;82.90;;;;;;5079238;28;19916;-83
2020/12/15 12:31:49;;;;;;;;;;;11.80;82.90;;;;;;5096487;28;19941;-82
2020/12/15 12:34:14;;;;;;;;;;;11.80;82.90;;;;;;5093264;28;20257;-82
2020/12/15 12:36:40;;;;;;;;;;;11.80;82.90;;;;;;5071471;28;19922;-82
2020/12/15 12:39:06;;;;;;;;;;;11.80;82.90;;;;;;5104598;28;20289;-82
2020/12/15 12:41:31;;;;;;;;;;;11.80;82.90;;;;;;5093336;28;20487;-82
2020/12/15 12:43:57;;;;;;;;;;;11.90;82.90;;;;;;5096317;28;19911;-82
2020/12/15 12:46:22;;;;;;;;;;;11.90;82.90;;;;;;5095398;28;20014;-82
2020/12/15 12:48:48;;;;;;;;;;;11.90;83.50;;;;;;5111788;28;19912;-82
2020/12/15 12:51:17;;;;;;;;;;;11.90;82.90;;;;;;5066884;28;19913;-82
2020/12/15 12:53:43;;;;;;;;;;;11.90;82.90;;;;;;5076404;28;19947;-82
2020/12/15 12:56:09;;;;;;;;;;;11.90;82.90;;;;;;5077522;28;19912;-82
2020/12/15 12:58:35;;;;;;;;;;;11.90;82.90;;;;;;5096230;28;20383;-82
2020/12/15 13:01:00;;;;;;;;;;;11.90;82.90;;;;;;5096158;28;19962;-82
2020/12/15 13:03:26;;;;;;;;;;;11.90;82.90;;;;;;5095533;28;20365;-82
2020/12/15 13:05:51;;;;;;;;;;;11.90;82.90;;;;;;5085606;28;19931;-82
2020/12/15 13:08:17;;;;;;;;;;;11.90;82.90;;;;;;5096005;28;20285;-82
2020/12/15 13:10:42;;;;;;;;;;;11.90;82.90;;;;;;5095695;28;19912;-82
2020/12/15 13:13:08;;;;;;;;;;;11.90;82.90;;;;;;5096134;28;19961;-82
2020/12/15 13:15:34;;;;;;;;;;;11.90;82.90;;;;;;5110100;28;20365;-82
2020/12/15 13:17:59;;;;;;;;;;;12.00;82.90;;;;;;5085456;28;19923;-82
2020/12/15 13:20:25;;;;;;;;;;;12.00;82.90;;;;;;5092110;28;19927;-82
2020/12/15 13:22:51;;;;;;;;;;;12.00;82.90;;;;;;5076511;28;19974;-81
2020/12/15 13:25:16;;;;;;;;;;;12.00;82.90;;;;;;5078990;28;19931;-82
2020/12/15 13:27:42;;;;;;;;;;;12.00;82.90;;;;;;5038723;28;20321;-82
2020/12/15 13:30:07;;;;;;;;;;;12.00;82.90;;;;;;5060052;28;19912;-82
2020/12/15 13:32:33;;;;;;;;;;;12.00;82.90;;;;;;5054820;28;19912;-82
2020/12/15 13:34:58;;;;;;;;;;;12.00;82.90;;;;;;5088513;28;19947;-82
2020/12/15 13:37:24;;;;;;;;;;;12.00;82.90;;;;;;5091724;28;20015;-82
2020/12/15 13:39:49;;;;;;;;;;;12.00;82.90;;;;;;5075138;28;19912;-82
2020/12/15 13:42:15;;;;;;;;;;;12.00;82.90;;;;;;5075162;28;20003;-82
2020/12/15 13:44:40;;;;;;;;;;;12.00;82.90;;;;;;5058063;28;20346;-83
2020/12/15 13:47:06;;;;;;;;;;;12.00;82.90;;;;;;5074404;28;19916;-83
2020/12/15 13:49:32;;;;;;;;;;;12.00;82.90;;;;;;5055922;28;19951;-82
2020/12/15 13:51:58;;;;;;;;;;;12.00;82.90;;;;;;5040965;28;19913;-82
2020/12/15 13:54:24;;;;;;;;;;;12.00;82.90;;;;;;5054649;28;20502;-82
2020/12/15 13:56:50;;;;;;;;;;;12.10;82.90;;;;;;5072649;28;20007;-82
2020/12/15 13:59:15;;;;;;;;;;;12.10;82.90;;;;;;5078131;28;19912;-82
2020/12/15 14:01:44;;;;;;;;;;;12.10;82.90;;;;;;5092857;28;19930;-82
2020/12/15 14:04:10;;;;;;;;;;;12.10;82.90;;;;;;5092957;28;19962;-82
2020/12/15 14:06:35;;;;;;;;;;;12.10;82.90;;;;;;5074757;28;19920;-82
2020/12/15 14:09:01;;;;;;;;;;;12.10;82.90;;;;;;5074607;28;19935;-82
2020/12/15 14:11:27;;;;;;;;;;;12.10;82.90;;;;;;5058081;28;20015;-83